createdAt,value
2019-02-19T00:00:49.532Z,15.83
2019-02-19T00:03:18.438Z,20.47
2019-02-19T00:05:47.284Z,16.03
2019-02-19T00:08:16.122Z,13.90
2019-02-19T00:10:46.654Z,15.07
2019-02-19T00:13:16.372Z,14.50
2019-02-19T00:15:45.175Z,14.07
2019-02-19T00:18:14.619Z,15.17
2019-02-19T00:20:43.658Z,16.70
2019-02-19T00:23:12.480Z,11.80
2019-02-19T00:25:41.402Z,12.47
2019-02-19T00:28:10.433Z,12.60
2019-02-19T00:30:39.318Z,11.90
2019-02-19T00:33:10.387Z,12.17
2019-02-19T00:35:39.206Z,12.10
2019-02-19T00:38:08.157Z,12.17
2019-02-19T00:40:36.979Z,12.37
2019-02-19T00:43:05.791Z,12.17
2019-02-19T00:45:34.730Z,11.47
2019-02-19T00:48:03.538Z,14.77
2019-02-19T00:50:32.403Z,11.10
2019-02-19T00:53:01.310Z,13.17
2019-02-19T00:55:30.146Z,13.00
2019-02-19T00:57:59.061Z,10.60
2019-02-19T01:00:28.590Z,13.00
2019-02-19T01:02:57.421Z,13.53
2019-02-19T01:05:26.373Z,13.10
2019-02-19T01:07:55.170Z,12.90
2019-02-19T01:10:23.973Z,14.97
2019-02-19T01:12:52.748Z,12.57
2019-02-19T01:15:25.493Z,13.10
2019-02-19T01:17:52.319Z,12.43
2019-02-19T01:20:21.223Z,13.80
2019-02-19T01:22:50.236Z,11.20
2019-02-19T01:25:19.250Z,12.93
2019-02-19T01:27:47.930Z,13.13
2019-02-19T01:30:21.802Z,14.17
2019-02-19T01:32:50.791Z,14.03
2019-02-19T01:35:19.635Z,9.68
2019-02-19T01:37:48.541Z,10.93
2019-02-19T01:40:17.468Z,14.87
2019-02-19T01:42:46.567Z,11.40
2019-02-19T01:45:15.728Z,13.00
2019-02-19T01:47:44.536Z,11.70
2019-02-19T01:50:13.798Z,12.47
2019-02-19T01:52:42.657Z,14.07
2019-02-19T01:55:11.826Z,11.63
2019-02-19T01:57:40.690Z,13.83
2019-02-19T02:00:10.532Z,11.50
2019-02-19T02:02:39.335Z,14.00
2019-02-19T02:05:08.238Z,13.10
2019-02-19T02:07:37.523Z,12.07
2019-02-19T02:10:06.681Z,12.87
2019-02-19T02:12:35.641Z,16.80
2019-02-19T02:15:04.461Z,16.40
2019-02-19T02:17:33.243Z,14.87
2019-02-19T02:20:02.088Z,14.27
2019-02-19T02:22:30.880Z,14.87
2019-02-19T02:24:59.688Z,16.00
2019-02-19T02:27:28.563Z,17.53
2019-02-19T02:29:57.496Z,16.33
2019-02-19T02:32:26.401Z,14.73
2019-02-19T02:34:55.229Z,14.13
2019-02-19T02:37:24.268Z,14.87
2019-02-19T02:39:53.242Z,19.13
2019-02-19T02:42:22.279Z,21.57
2019-02-19T02:44:51.080Z,18.23
2019-02-19T02:47:20.134Z,22.93
2019-02-19T02:49:49.083Z,20.20
2019-02-19T02:52:17.961Z,20.13
2019-02-19T02:54:46.918Z,18.27
2019-02-19T02:57:15.802Z,20.90
2019-02-19T02:59:44.629Z,18.50
2019-02-19T03:02:13.440Z,25.87
2019-02-19T03:04:42.496Z,22.07
2019-02-19T03:07:16.070Z,19.63
2019-02-19T03:09:45.590Z,20.03
2019-02-19T03:12:14.362Z,23.10
2019-02-19T03:14:43.477Z,29.07
2019-02-19T03:17:12.255Z,22.73
2019-02-19T03:19:41.162Z,23.23
2019-02-19T03:22:10.257Z,22.90
2019-02-19T03:24:39.029Z,22.10
2019-02-19T03:27:08.220Z,24.83
2019-02-19T03:29:37.183Z,23.17
2019-02-19T03:32:06.118Z,25.67
2019-02-19T03:34:35.162Z,26.73
2019-02-19T03:37:04.902Z,27.07
2019-02-19T03:39:33.743Z,26.67
2019-02-19T03:42:02.509Z,26.13
2019-02-19T03:44:31.350Z,25.97
2019-02-19T03:47:00.069Z,27.57
2019-02-19T03:49:28.927Z,25.27
2019-02-19T03:51:57.887Z,23.53
2019-02-19T03:54:26.700Z,23.80
2019-02-19T03:56:55.433Z,23.10
2019-02-19T03:59:24.957Z,25.80
2019-02-19T04:01:53.809Z,27.67
2019-02-19T04:04:22.564Z,23.10
2019-02-19T04:06:53.480Z,25.00
2019-02-19T04:09:22.340Z,25.97
2019-02-19T04:11:51.159Z,24.87
2019-02-19T04:14:20.732Z,26.47
2019-02-19T04:16:49.622Z,30.87
2019-02-19T04:19:18.531Z,24.60
2019-02-19T04:21:48.148Z,28.83
2019-02-19T04:24:17.108Z,24.30
2019-02-19T04:26:46.193Z,25.60
2019-02-19T04:29:15.769Z,27.77
2019-02-19T04:31:44.579Z,26.90
2019-02-19T04:34:13.658Z,27.80
2019-02-19T04:36:42.599Z,26.73
2019-02-19T04:39:11.684Z,29.27
2019-02-19T04:41:40.506Z,26.93
2019-02-19T04:44:09.425Z,25.67
2019-02-19T04:46:38.972Z,26.67
2019-02-19T04:49:07.757Z,29.13
2019-02-19T04:51:36.623Z,25.70
2019-02-19T04:54:05.540Z,27.30
2019-02-19T04:56:34.428Z,26.63
2019-02-19T04:59:03.435Z,27.90
2019-02-19T05:01:32.317Z,27.83
2019-02-19T05:04:01.120Z,28.33
2019-02-19T05:06:30.016Z,23.57
2019-02-19T05:08:59.091Z,27.53
2019-02-19T05:11:27.924Z,23.57
2019-02-19T05:13:56.895Z,27.10
2019-02-19T05:16:25.875Z,24.80
2019-02-19T05:18:55.088Z,26.00
2019-02-19T05:21:24.078Z,23.93
2019-02-19T05:23:53.347Z,26.90
2019-02-19T05:26:22.217Z,23.80
2019-02-19T05:28:51.263Z,23.30
2019-02-19T05:31:20.279Z,24.87
2019-02-19T05:33:49.175Z,25.47
2019-02-19T05:36:18.334Z,25.37
2019-02-19T05:38:47.662Z,25.73
2019-02-19T05:41:16.547Z,23.53
2019-02-19T05:43:45.353Z,26.77
2019-02-19T05:46:14.205Z,23.00
2019-02-19T05:48:43.330Z,24.90
2019-02-19T05:51:12.315Z,24.53
2019-02-19T05:53:41.273Z,24.53
2019-02-19T05:56:16.334Z,23.03
2019-02-19T05:58:46.226Z,27.07
2019-02-19T06:01:15.317Z,24.70
2019-02-19T06:03:44.299Z,24.17
2019-02-19T06:06:13.613Z,27.17
2019-02-19T06:08:42.546Z,28.30
2019-02-19T06:11:12.213Z,23.30
2019-02-19T06:13:41.051Z,26.30
2019-02-19T06:16:10.037Z,24.60
2019-02-19T06:18:39.646Z,26.43
2019-02-19T06:21:08.603Z,25.00
2019-02-19T06:23:37.414Z,26.00
2019-02-19T06:26:06.303Z,31.53
2019-02-19T06:28:35.140Z,26.00
2019-02-19T06:31:04.198Z,26.60
2019-02-19T06:33:33.291Z,25.77
2019-02-19T06:36:02.236Z,31.33
2019-02-19T06:38:31.075Z,29.27
2019-02-19T06:41:01.955Z,25.53
2019-02-19T06:43:30.739Z,29.13
2019-02-19T06:45:59.688Z,27.73
2019-02-19T06:48:28.555Z,32.93
2019-02-19T06:50:57.324Z,29.17
2019-02-19T06:53:26.124Z,29.07
2019-02-19T06:55:55.011Z,26.23
2019-02-19T06:58:23.851Z,28.30
2019-02-19T07:00:52.730Z,27.43
2019-02-19T07:03:35.638Z,28.63
2019-02-19T07:06:04.858Z,29.77
2019-02-19T07:08:34.009Z,30.20
2019-02-19T07:11:03.323Z,27.60
2019-02-19T07:13:32.339Z,30.70
2019-02-19T07:16:01.203Z,25.53
2019-02-19T07:18:30.325Z,27.57
2019-02-19T07:20:59.473Z,30.77
2019-02-19T07:23:28.368Z,28.73
2019-02-19T07:25:57.245Z,32.70
2019-02-19T07:28:26.271Z,26.73
2019-02-19T07:30:55.066Z,30.20
2019-02-19T07:33:23.858Z,29.67
2019-02-19T07:35:52.712Z,25.27
2019-02-19T07:38:21.598Z,29.40
2019-02-19T07:40:50.532Z,25.63
2019-02-19T07:43:27.397Z,26.13
2019-02-19T07:45:56.470Z,26.57
2019-02-19T07:48:25.271Z,29.53
2019-02-19T07:50:54.139Z,29.33
2019-02-19T07:53:22.933Z,27.43
2019-02-19T07:55:51.740Z,32.53
2019-02-19T07:58:20.661Z,26.53
2019-02-19T08:00:50.319Z,25.70
2019-02-19T08:03:19.135Z,29.23
2019-02-19T08:05:47.942Z,25.60
2019-02-19T08:08:16.719Z,25.40
2019-02-19T08:10:45.560Z,28.33
2019-02-19T08:13:14.700Z,28.47
2019-02-19T08:15:43.700Z,23.90
2019-02-19T08:18:12.765Z,22.77
2019-02-19T08:20:41.777Z,27.33
2019-02-19T08:23:10.871Z,29.10
2019-02-19T08:25:39.866Z,22.13
2019-02-19T08:28:08.737Z,22.50
2019-02-19T08:30:37.679Z,24.40
2019-02-19T08:33:06.474Z,26.17
2019-02-19T08:35:35.411Z,26.80
2019-02-19T08:38:04.193Z,20.77
2019-02-19T08:40:33.013Z,25.00
2019-02-19T08:43:01.800Z,25.23
2019-02-19T08:45:30.585Z,23.40
2019-02-19T08:47:59.368Z,22.67
2019-02-19T08:50:28.099Z,20.93
2019-02-19T08:52:56.888Z,21.60
2019-02-19T08:55:25.641Z,21.63
2019-02-19T08:57:54.468Z,28.63
2019-02-19T09:00:23.370Z,24.83
2019-02-19T09:02:52.353Z,26.10
2019-02-19T09:05:21.113Z,21.20
2019-02-19T09:07:49.958Z,21.43
2019-02-19T09:10:18.766Z,26.53
2019-02-19T09:12:47.629Z,24.87
2019-02-19T09:15:16.650Z,22.93
2019-02-19T09:17:51.717Z,23.33
2019-02-19T09:20:15.953Z,26.93
2019-02-19T09:22:44.922Z,30.33
2019-02-19T09:25:13.756Z,22.03
2019-02-19T09:27:43.392Z,22.30
2019-02-19T09:30:12.345Z,21.53
2019-02-19T09:32:41.320Z,20.67
2019-02-19T09:35:10.110Z,21.03
2019-02-19T09:37:38.986Z,23.27
2019-02-19T09:40:08.541Z,23.23
2019-02-19T09:42:37.310Z,26.47
2019-02-19T09:45:06.569Z,17.60
2019-02-19T09:47:35.340Z,17.90
2019-02-19T09:50:04.151Z,22.67
2019-02-19T09:52:33.243Z,22.87
2019-02-19T09:55:02.049Z,31.03
2019-02-19T09:57:32.616Z,24.70
2019-02-19T10:00:01.344Z,17.00
2019-02-19T10:02:30.251Z,19.97
2019-02-19T10:04:59.067Z,20.83
2019-02-19T10:07:27.861Z,20.90
2019-02-19T10:09:56.687Z,19.57
2019-02-19T10:12:25.583Z,20.57
2019-02-19T10:14:54.396Z,20.20
2019-02-19T10:17:23.344Z,22.83
2019-02-19T10:19:52.151Z,16.07
2019-02-19T10:22:21.067Z,18.73
2019-02-19T10:24:52.412Z,14.97
2019-02-19T10:27:21.234Z,15.53
2019-02-19T10:29:50.070Z,22.00
2019-02-19T10:32:18.870Z,18.60
2019-02-19T10:34:47.879Z,17.50
2019-02-19T10:37:16.839Z,16.97
2019-02-19T10:39:45.729Z,19.40
2019-02-19T10:42:15.626Z,17.30
2019-02-19T10:44:44.495Z,16.77
2019-02-19T10:47:13.534Z,16.10
2019-02-19T10:49:42.473Z,12.20
2019-02-19T10:52:12.972Z,14.13
2019-02-19T10:54:41.756Z,14.70
2019-02-19T10:57:10.716Z,15.00
2019-02-19T10:59:39.487Z,20.40
2019-02-19T11:02:08.323Z,16.27
2019-02-19T11:04:37.104Z,16.10
2019-02-19T11:07:05.913Z,16.23
2019-02-19T11:09:34.637Z,21.37
2019-02-19T11:12:03.568Z,21.90
2019-02-19T11:14:32.315Z,19.37
2019-02-19T11:17:01.139Z,19.00
2019-02-19T11:19:30.119Z,21.20
2019-02-19T11:21:58.939Z,18.13
2019-02-19T11:24:27.695Z,15.13
2019-02-19T11:26:56.687Z,18.83
2019-02-19T11:29:25.600Z,17.10
2019-02-19T11:31:54.379Z,19.70
2019-02-19T11:34:23.422Z,13.73
2019-02-19T11:36:52.468Z,16.70
2019-02-19T11:39:22.583Z,15.30
2019-02-19T11:41:51.542Z,16.97
2019-02-19T11:44:20.492Z,16.47
2019-02-19T11:46:49.404Z,13.33
2019-02-19T11:49:18.312Z,14.30
2019-02-19T11:51:48.225Z,14.27
2019-02-19T11:54:17.033Z,15.40
2019-02-19T11:56:46.010Z,14.17
2019-02-19T11:59:14.890Z,12.90
2019-02-19T12:01:43.826Z,14.97
2019-02-19T12:04:12.611Z,17.30
2019-02-19T12:06:41.418Z,19.37
2019-02-19T12:09:10.230Z,14.83
2019-02-19T12:11:39.162Z,12.90
2019-02-19T12:14:08.191Z,16.80
2019-02-19T12:16:36.975Z,14.03
2019-02-19T12:19:05.996Z,16.50
2019-02-19T12:21:34.926Z,14.80
2019-02-19T12:24:03.877Z,15.63
2019-02-19T12:26:32.751Z,12.80
2019-02-19T12:29:01.796Z,15.27
2019-02-19T12:31:30.595Z,14.27
2019-02-19T12:33:59.473Z,16.57
2019-02-19T12:36:28.286Z,13.43
2019-02-19T12:38:57.035Z,15.70
2019-02-19T12:41:25.866Z,18.80
2019-02-19T12:43:54.653Z,17.10
2019-02-19T12:46:23.558Z,16.03
2019-02-19T12:48:54.755Z,13.97
2019-02-19T12:51:26.367Z,20.32
2019-02-19T12:53:53.404Z,16.53
2019-02-19T12:56:24.162Z,15.67
2019-02-19T12:58:52.923Z,16.20
2019-02-19T13:01:21.737Z,17.97
2019-02-19T13:03:50.566Z,16.50
2019-02-19T13:06:19.478Z,15.30
2019-02-19T13:08:48.415Z,18.87
2019-02-19T13:11:17.212Z,16.33
2019-02-19T13:13:46.083Z,15.80
2019-02-19T13:16:14.905Z,12.97
2019-02-19T13:18:43.704Z,18.17
2019-02-19T13:21:12.511Z,14.30
2019-02-19T13:23:41.433Z,14.23
2019-02-19T13:26:10.314Z,14.67
2019-02-19T13:28:39.135Z,15.70
2019-02-19T13:31:08.542Z,12.63
2019-02-19T13:33:37.374Z,16.20
2019-02-19T13:36:07.180Z,15.83
2019-02-19T13:38:35.996Z,14.77
2019-02-19T13:41:04.784Z,15.63
2019-02-19T13:43:33.656Z,18.83
2019-02-19T13:46:04.209Z,14.57
2019-02-19T13:48:33.493Z,13.33
2019-02-19T13:51:02.437Z,9.87
2019-02-19T13:53:47.233Z,13.37
2019-02-19T13:56:16.087Z,15.87
2019-02-19T13:58:44.903Z,18.23
2019-02-19T14:01:14.555Z,14.30
2019-02-19T14:03:43.598Z,14.07
2019-02-19T14:06:12.467Z,14.57
2019-02-19T14:08:41.306Z,11.83
2019-02-19T14:11:10.084Z,11.77
2019-02-19T14:13:41.562Z,17.10
2019-02-19T14:16:20.410Z,13.97
2019-02-19T14:18:57.405Z,16.10
2019-02-19T14:22:00.391Z,14.97
2019-02-19T14:25:01.909Z,13.00
2019-02-19T14:27:55.606Z,12.20
2019-02-19T14:30:36.626Z,9.33
2019-02-19T14:33:30.791Z,14.50
2019-02-19T14:36:28.076Z,13.03
2019-02-19T14:39:14.819Z,11.07
2019-02-19T14:41:54.500Z,13.40
2019-02-19T14:44:42.314Z,14.20
2019-02-19T14:47:23.303Z,12.07
2019-02-19T14:50:13.955Z,13.00
2019-02-19T14:53:14.148Z,14.83
2019-02-19T14:56:01.990Z,14.10
2019-02-19T14:58:50.723Z,13.23
2019-02-19T15:01:38.625Z,18.03
2019-02-19T15:04:35.636Z,13.97
2019-02-19T15:07:26.524Z,13.00
2019-02-19T15:10:26.502Z,11.53
2019-02-19T15:13:20.541Z,15.00
2019-02-19T15:16:07.554Z,9.83
2019-02-19T15:18:55.683Z,13.80
2019-02-19T15:21:42.286Z,8.13
2019-02-19T15:24:30.141Z,12.03
2019-02-19T15:27:27.133Z,9.90
2019-02-19T15:30:30.197Z,10.33
2019-02-19T15:33:05.935Z,10.07
2019-02-19T15:35:56.706Z,8.80
2019-02-19T15:38:50.215Z,9.13
2019-02-19T15:41:38.294Z,8.43
2019-02-19T15:44:22.099Z,6.57
2019-02-19T15:47:03.900Z,9.17
2019-02-19T15:50:07.499Z,7.35
2019-02-19T15:53:02.706Z,6.87
2019-02-19T15:55:49.447Z,6.73
2019-02-19T15:58:43.734Z,4.97
2019-02-19T16:01:30.371Z,6.87
2019-02-19T16:04:03.462Z,5.90
2019-02-19T16:06:48.424Z,3.30
2019-02-19T16:09:33.764Z,4.77
2019-02-19T16:12:20.556Z,5.57
2019-02-19T16:15:11.295Z,13.87
2019-02-19T16:17:57.874Z,6.63
2019-02-19T16:20:51.764Z,7.93
2019-02-19T16:23:37.477Z,7.00
2019-02-19T16:26:24.131Z,6.10
2019-02-19T16:29:10.085Z,6.87
2019-02-19T16:31:56.808Z,7.33
2019-02-19T16:34:50.991Z,6.90
2019-02-19T16:37:38.903Z,5.63
2019-02-19T16:40:39.059Z,10.83
2019-02-19T16:43:30.135Z,8.27
2019-02-19T16:46:16.658Z,9.23
2019-02-19T16:48:52.611Z,5.07
2019-02-19T16:51:39.240Z,6.92
2019-02-19T16:54:36.194Z,5.63
2019-02-19T16:57:30.230Z,6.40
2019-02-19T17:00:13.363Z,13.00
2019-02-19T17:03:04.067Z,7.07
2019-02-19T17:05:49.539Z,7.07
2019-02-19T17:08:37.520Z,7.20
2019-02-19T17:11:25.416Z,7.23
2019-02-19T17:14:19.019Z,8.23
2019-02-19T17:17:09.940Z,6.00
2019-02-19T17:20:00.882Z,5.60
2019-02-19T17:22:53.524Z,6.90
2019-02-19T17:25:31.573Z,6.43
2019-02-19T17:28:19.579Z,9.90
2019-02-19T17:31:07.660Z,5.30
2019-02-19T17:33:45.552Z,5.07
2019-02-19T17:36:29.666Z,7.60
2019-02-19T17:39:21.823Z,8.30
2019-02-19T17:42:00.505Z,6.20
2019-02-19T17:44:47.144Z,7.13
2019-02-19T17:47:34.354Z,9.47
2019-02-19T17:50:22.240Z,5.70
2019-02-19T17:53:19.556Z,8.37
2019-02-19T17:55:56.311Z,6.00
2019-02-19T17:58:29.454Z,10.57
2019-02-19T18:01:29.604Z,11.47
2019-02-19T18:04:21.659Z,8.60
2019-02-19T18:07:16.152Z,10.53
2019-02-19T18:10:10.108Z,12.30
2019-02-19T18:12:58.048Z,10.73
2019-02-19T18:15:40.325Z,9.43
2019-02-19T18:18:25.055Z,8.13
2019-02-19T18:20:54.320Z,9.40
2019-02-19T18:23:25.173Z,6.57
2019-02-19T18:25:54.267Z,8.03
2019-02-19T18:28:23.324Z,10.93
2019-02-19T18:30:54.065Z,9.43
2019-02-19T18:33:23.011Z,6.83
2019-02-19T18:35:52.030Z,11.33
2019-02-19T18:38:21.290Z,10.40
2019-02-19T18:40:50.596Z,8.80
2019-02-19T18:43:19.633Z,4.97
2019-02-19T18:45:48.714Z,10.27
2019-02-19T18:48:17.782Z,9.70
2019-02-19T18:50:49.004Z,7.80
2019-02-19T18:53:17.848Z,7.90
2019-02-19T18:55:46.928Z,11.23
2019-02-19T18:58:15.821Z,6.83
2019-02-19T19:00:46.330Z,8.13
2019-02-19T19:03:16.033Z,8.37
2019-02-19T19:05:45.599Z,7.87
2019-02-19T19:08:14.924Z,11.20
2019-02-19T19:10:44.123Z,6.30
2019-02-19T19:13:13.261Z,4.83
2019-02-19T19:15:42.810Z,9.87
2019-02-19T19:18:12.008Z,5.67
2019-02-19T19:20:41.173Z,8.33
2019-02-19T19:23:10.121Z,10.70
2019-02-19T19:25:39.440Z,8.08
2019-02-19T19:28:08.568Z,8.67
2019-02-19T19:30:37.873Z,10.97
2019-02-19T19:33:07.130Z,7.93
2019-02-19T19:35:36.754Z,8.73
2019-02-19T19:38:05.617Z,6.80
2019-02-19T19:40:34.744Z,13.37
2019-02-19T19:43:03.789Z,10.40
2019-02-19T19:45:32.716Z,9.87
2019-02-19T19:48:01.925Z,7.47
2019-02-19T19:50:31.292Z,13.17
2019-02-19T19:53:00.534Z,11.93
2019-02-19T19:55:29.558Z,9.83
2019-02-19T19:57:59.176Z,7.83
2019-02-19T20:00:28.744Z,14.00
2019-02-19T20:02:58.154Z,8.63
2019-02-19T20:05:27.250Z,9.90
2019-02-19T20:07:56.285Z,9.03
2019-02-19T20:10:26.003Z,10.17
2019-02-19T20:12:55.123Z,11.70
2019-02-19T20:15:24.238Z,10.73
2019-02-19T20:17:53.504Z,6.43
2019-02-19T20:20:24.073Z,12.43
2019-02-19T20:22:53.594Z,10.57
2019-02-19T20:25:22.747Z,10.83
2019-02-19T20:27:51.866Z,13.13
2019-02-19T20:30:21.228Z,10.80
2019-02-19T20:32:50.401Z,12.87
2019-02-19T20:35:19.269Z,9.77
2019-02-19T20:37:54.092Z,11.97
2019-02-19T20:40:19.052Z,8.57
2019-02-19T20:42:48.071Z,10.60
2019-02-19T20:45:17.641Z,14.75
2019-02-19T20:47:46.689Z,15.60
2019-02-19T20:50:16.042Z,13.27
2019-02-19T20:52:44.979Z,12.83
2019-02-19T20:55:14.054Z,11.30
2019-02-19T20:57:42.923Z,13.93
2019-02-19T21:00:13.584Z,8.63
2019-02-19T21:02:42.697Z,10.83
2019-02-19T21:05:11.778Z,12.37
2019-02-19T21:07:40.837Z,7.10
2019-02-19T21:10:11.191Z,12.13
2019-02-19T21:12:40.391Z,10.20
2019-02-19T21:15:09.811Z,9.90
2019-02-19T21:17:38.715Z,14.93
2019-02-19T21:20:08.213Z,10.50
2019-02-19T21:22:37.571Z,8.93
2019-02-19T21:25:07.030Z,11.57
2019-02-19T21:27:36.489Z,14.73
2019-02-19T21:30:05.572Z,9.67
2019-02-19T21:32:34.743Z,10.57
2019-02-19T21:35:03.974Z,10.80
2019-02-19T21:37:33.001Z,11.47
2019-02-19T21:40:02.108Z,8.93
2019-02-19T21:42:31.670Z,10.43
2019-02-19T21:45:01.286Z,8.77
2019-02-19T21:47:30.608Z,15.33
2019-02-19T21:49:59.487Z,11.83
2019-02-19T21:52:29.049Z,15.30
2019-02-19T21:54:58.093Z,11.60
2019-02-19T21:57:26.999Z,11.53
2019-02-19T21:59:56.072Z,9.03
2019-02-19T22:02:25.211Z,12.83
2019-02-19T22:04:54.264Z,12.60
2019-02-19T22:07:23.138Z,9.57
2019-02-19T22:09:52.146Z,13.17
2019-02-19T22:12:21.293Z,16.00
2019-02-19T22:14:50.271Z,12.80
2019-02-19T22:17:19.665Z,15.97
2019-02-19T22:19:48.731Z,12.93
2019-02-19T22:22:20.231Z,15.90
2019-02-19T22:24:49.061Z,10.43
2019-02-19T22:27:18.014Z,11.53
2019-02-19T22:29:47.060Z,13.33
2019-02-19T22:32:18.103Z,15.30
2019-02-19T22:34:47.272Z,12.63
2019-02-19T22:37:16.096Z,12.53
2019-02-19T22:39:45.014Z,15.53
2019-02-19T22:42:14.189Z,11.20
2019-02-19T22:44:43.072Z,11.13
2019-02-19T22:47:12.071Z,10.50
2019-02-19T22:49:41.047Z,12.97
2019-02-19T22:52:12.534Z,10.23
2019-02-19T22:54:51.678Z,9.17
2019-02-19T22:57:21.244Z,8.57
2019-02-19T22:59:50.212Z,13.13
2019-02-19T23:02:27.566Z,9.67
2019-02-19T23:04:56.566Z,10.13
2019-02-19T23:07:25.459Z,8.27
2019-02-19T23:09:54.931Z,12.30
2019-02-19T23:12:24.317Z,8.90
2019-02-19T23:14:53.205Z,12.87
2019-02-19T23:17:22.247Z,9.37
2019-02-19T23:20:16.141Z,12.13
2019-02-19T23:22:44.980Z,10.67
2019-02-19T23:25:13.828Z,9.23
2019-02-19T23:27:43.033Z,13.03
2019-02-19T23:30:11.982Z,12.47
2019-02-19T23:32:40.784Z,9.97
2019-02-19T23:35:31.397Z,12.10
2019-02-19T23:38:00.508Z,8.47
2019-02-19T23:40:29.294Z,8.37
2019-02-19T23:42:58.321Z,7.60
2019-02-19T23:45:27.490Z,12.67
2019-02-19T23:47:56.422Z,12.33
2019-02-19T23:50:25.352Z,13.20
2019-02-19T23:52:54.121Z,12.87
2019-02-19T23:55:23.752Z,15.50
2019-02-19T23:57:54.506Z,10.27
